createdAt,value
2018-05-31T00:00:10.160Z,20.8
2018-05-31T00:01:01.817Z,20.8
2018-05-31T00:01:50.290Z,20.8
2018-05-31T00:02:39.795Z,20.8
2018-05-31T00:03:30.465Z,20.7
2018-05-31T00:04:19.869Z,20.8
2018-05-31T00:05:10.898Z,20.8
2018-05-31T00:06:00.685Z,20.8
2018-05-31T00:06:50.235Z,20.7
2018-05-31T00:07:40.475Z,20.8
2018-05-31T00:08:29.977Z,20.7
2018-05-31T00:09:20.295Z,20.7
2018-05-31T00:10:11.807Z,20.7
2018-05-31T00:11:00.131Z,20.7
2018-05-31T00:11:51.072Z,20.7
2018-05-31T00:12:40.865Z,20.7
2018-05-31T00:13:32.407Z,20.7
2018-05-31T00:14:21.294Z,20.7
2018-05-31T00:15:11.579Z,20.7
2018-05-31T00:16:00.495Z,20.7
2018-05-31T00:16:54.204Z,20.7
2018-05-31T00:17:40.657Z,20.7
2018-05-31T00:18:31.554Z,20.7
2018-05-31T00:19:20.482Z,20.7
2018-05-31T00:20:14.192Z,20.7
2018-05-31T00:21:01.771Z,20.6
2018-05-31T00:21:52.149Z,20.7
2018-05-31T00:22:41.008Z,20.7
2018-05-31T00:23:34.805Z,20.7
2018-05-31T00:24:21.478Z,20.7
2018-05-31T00:25:12.793Z,20.6
2018-05-31T00:26:02.229Z,20.7
2018-05-31T00:26:52.726Z,20.7
2018-05-31T00:27:41.972Z,20.6
2018-05-31T00:28:32.364Z,20.6
2018-05-31T00:29:21.614Z,20.6
2018-05-31T00:30:11.964Z,20.6
2018-05-31T00:31:02.517Z,20.6
2018-05-31T00:31:52.612Z,20.6
2018-05-31T00:32:42.988Z,20.6
2018-05-31T00:33:32.722Z,20.6
2018-05-31T00:34:22.537Z,20.6
2018-05-31T00:35:12.250Z,20.6
2018-05-31T00:36:03.179Z,20.6
2018-05-31T00:36:52.959Z,20.6
2018-05-31T00:37:42.383Z,20.6
2018-05-31T00:38:32.806Z,20.6
2018-05-31T00:39:23.121Z,20.6
2018-05-31T00:40:12.902Z,20.6
2018-05-31T00:41:03.614Z,20.6
2018-05-31T00:41:52.463Z,20.6
2018-05-31T00:42:44.795Z,20.6
2018-05-31T00:43:32.973Z,20.6
2018-05-31T00:44:23.841Z,20.6
2018-05-31T00:45:13.016Z,20.6
2018-05-31T00:46:05.920Z,20.6
2018-05-31T00:46:52.846Z,20.6
2018-05-31T00:47:42.342Z,20.6
2018-05-31T00:48:33.915Z,20.6
2018-05-31T00:49:26.942Z,20.6
2018-05-31T00:50:13.375Z,20.6
2018-05-31T00:51:04.005Z,20.6
2018-05-31T00:51:53.492Z,20.6
2018-05-31T00:52:45.958Z,20.6
2018-05-31T00:53:33.627Z,20.6
2018-05-31T00:54:24.725Z,20.6
2018-05-31T00:55:14.079Z,20.6
2018-05-31T00:56:06.801Z,20.6
2018-05-31T00:56:54.227Z,20.5
2018-05-31T00:57:44.589Z,20.6
2018-05-31T00:58:34.362Z,20.6
2018-05-31T00:59:26.100Z,20.5
2018-05-31T01:00:14.167Z,20.6
2018-05-31T01:01:03.927Z,20.5
2018-05-31T01:01:53.978Z,20.5
2018-05-31T01:02:45.556Z,20.5
2018-05-31T01:03:34.744Z,20.5
2018-05-31T01:04:23.634Z,20.5
2018-05-31T01:05:15.416Z,20.5
2018-05-31T01:06:04.635Z,20.5
2018-05-31T01:06:55.269Z,20.5
2018-05-31T01:07:45.335Z,20.5
2018-05-31T01:08:35.100Z,20.5
2018-05-31T01:09:25.159Z,20.5
2018-05-31T01:10:14.927Z,20.5
2018-05-31T01:11:05.314Z,20.5
2018-05-31T01:11:57.193Z,20.5
2018-05-31T01:12:45.120Z,20.5
2018-05-31T01:13:34.898Z,20.4
2018-05-31T01:14:25.491Z,20.4
2018-05-31T01:15:17.544Z,20.4
2018-05-31T01:16:05.113Z,20.5
2018-05-31T01:16:56.309Z,20.4
2018-05-31T01:17:45.765Z,20.4
2018-05-31T01:18:39.116Z,20.5
2018-05-31T01:19:25.113Z,20.4
2018-05-31T01:20:15.403Z,20.4
2018-05-31T01:21:04.974Z,20.4
2018-05-31T01:21:58.531Z,20.4
2018-05-31T01:22:44.994Z,20.4
2018-05-31T01:23:36.557Z,20.4
2018-05-31T01:24:25.687Z,20.4
2018-05-31T01:25:18.507Z,20.4
2018-05-31T01:26:06.409Z,20.4
2018-05-31T01:26:56.798Z,20.4
2018-05-31T01:27:46.870Z,20.4
2018-05-31T01:28:39.062Z,20.4
2018-05-31T01:29:26.672Z,20.4
2018-05-31T01:30:17.040Z,20.4
2018-05-31T01:31:06.764Z,20.4
2018-05-31T01:31:59.517Z,20.4
2018-05-31T01:32:46.604Z,20.4
2018-05-31T01:33:37.008Z,20.4
2018-05-31T01:34:26.488Z,20.4
2018-05-31T01:35:18.318Z,20.4
2018-05-31T01:36:07.211Z,20.4
2018-05-31T01:36:56.933Z,20.4
2018-05-31T01:37:48.051Z,20.4
2018-05-31T01:38:37.366Z,20.4
2018-05-31T01:39:27.170Z,20.4
2018-05-31T01:40:17.960Z,20.4
2018-05-31T01:41:08.748Z,20.4
2018-05-31T01:41:57.644Z,20.4
2018-05-31T01:42:47.731Z,20.4
2018-05-31T01:43:37.177Z,20.4
2018-05-31T01:44:28.556Z,20.4
2018-05-31T01:45:17.552Z,20.4
2018-05-31T01:46:07.669Z,20.4
2018-05-31T01:46:57.355Z,20.4
2018-05-31T01:47:50.701Z,20.4
2018-05-31T01:48:38.129Z,20.4
2018-05-31T01:49:28.496Z,20.3
2018-05-31T01:50:18.564Z,20.4
2018-05-31T01:51:10.779Z,20.3
2018-05-31T01:51:58.118Z,20.3
2018-05-31T01:52:48.752Z,20.3
2018-05-31T01:53:38.264Z,20.3
2018-05-31T01:54:31.087Z,20.3
2018-05-31T01:55:18.976Z,20.3
2018-05-31T01:56:08.989Z,20.3
2018-05-31T01:56:59.406Z,20.3
2018-05-31T01:57:52.124Z,20.3
2018-05-31T01:58:39.241Z,20.3
2018-05-31T01:59:28.688Z,20.3
2018-05-31T02:00:19.581Z,20.3
2018-05-31T02:01:12.196Z,20.3
2018-05-31T02:01:59.124Z,20.3
2018-05-31T02:02:49.571Z,20.3
2018-05-31T02:03:39.253Z,20.3
2018-05-31T02:04:31.864Z,20.3
2018-05-31T02:05:19.675Z,20.3
2018-05-31T02:06:09.463Z,20.3
2018-05-31T02:06:58.319Z,20.3
2018-05-31T02:07:49.314Z,20.3
2018-05-31T02:08:39.919Z,20.3
2018-05-31T02:09:29.679Z,20.3
2018-05-31T02:10:20.998Z,20.3
2018-05-31T02:11:10.435Z,20.3
2018-05-31T02:12:00.172Z,20.3
2018-05-31T02:12:50.001Z,20.3
2018-05-31T02:13:41.104Z,20.3
2018-05-31T02:14:30.074Z,20.3
2018-05-31T02:15:20.220Z,20.3
2018-05-31T02:16:09.910Z,20.3
2018-05-31T02:17:02.608Z,20.3
2018-05-31T02:17:50.055Z,20.3
2018-05-31T02:18:39.858Z,20.3
2018-05-31T02:19:29.062Z,20.3
2018-05-31T02:20:24.079Z,20.3
2018-05-31T02:21:10.366Z,20.3
2018-05-31T02:22:00.398Z,20.3
2018-05-31T02:22:50.801Z,20.2
2018-05-31T02:23:43.039Z,20.2
2018-05-31T02:24:30.469Z,20.3
2018-05-31T02:25:21.480Z,20.2
2018-05-31T02:26:11.282Z,20.2
2018-05-31T02:27:03.080Z,20.2
2018-05-31T02:27:51.236Z,20.2
2018-05-31T02:28:41.443Z,20.2
2018-05-31T02:29:31.571Z,20.2
2018-05-31T02:30:22.514Z,20.2
2018-05-31T02:31:11.869Z,20.2
2018-05-31T02:32:01.737Z,20.2
2018-05-31T02:32:51.469Z,20.2
2018-05-31T02:33:42.526Z,20.2
2018-05-31T02:34:31.310Z,20.2
2018-05-31T02:35:21.731Z,20.2
2018-05-31T02:36:11.486Z,20.2
2018-05-31T02:37:01.825Z,20.2
2018-05-31T02:37:52.170Z,20.2
2018-05-31T02:38:40.778Z,20.2
2018-05-31T02:39:33.440Z,20.2
2018-05-31T02:40:22.030Z,20.1
2018-05-31T02:41:11.846Z,20.1
2018-05-31T02:42:02.426Z,20.1
2018-05-31T02:42:54.683Z,20.1
2018-05-31T02:43:42.040Z,20.1
2018-05-31T02:44:32.378Z,20.1
2018-05-31T02:45:22.692Z,20.1
2018-05-31T02:46:14.792Z,20.1
2018-05-31T02:47:02.801Z,20.1
2018-05-31T02:47:53.254Z,20.1
2018-05-31T02:48:42.686Z,20.1
2018-05-31T02:49:35.487Z,20.1
2018-05-31T02:50:23.438Z,20.1
2018-05-31T02:51:12.595Z,20.1
2018-05-31T02:52:02.985Z,20.1
2018-05-31T02:52:56.326Z,20.1
2018-05-31T02:53:43.349Z,20.1
2018-05-31T02:54:32.571Z,20.1
2018-05-31T02:55:23.293Z,20.1
2018-05-31T02:56:16.002Z,20.1
2018-05-31T02:57:03.405Z,20.1
2018-05-31T02:57:53.938Z,20.1
2018-05-31T02:58:43.998Z,20.1
2018-05-31T02:59:32.697Z,20.1
2018-05-31T03:00:24.020Z,20.1
2018-05-31T03:01:13.656Z,20.1
2018-05-31T03:02:04.036Z,20.1
2018-05-31T03:02:54.079Z,20.1
2018-05-31T03:03:44.097Z,20.1
2018-05-31T03:04:34.099Z,20.1
2018-05-31T03:05:24.321Z,20.1
2018-05-31T03:06:14.316Z,20.1
2018-05-31T03:07:04.225Z,20.1
2018-05-31T03:07:54.294Z,20.1
2018-05-31T03:08:45.535Z,20.1
2018-05-31T03:09:34.287Z,20.1
2018-05-31T03:10:24.109Z,20.1
2018-05-31T03:11:14.739Z,20.1
2018-05-31T03:12:07.369Z,20
2018-05-31T03:12:54.837Z,20
2018-05-31T03:13:44.631Z,20.1
2018-05-31T03:14:33.242Z,20
2018-05-31T03:15:26.236Z,20
2018-05-31T03:16:14.820Z,20
2018-05-31T03:17:04.046Z,20
2018-05-31T03:17:55.596Z,20
2018-05-31T03:18:48.684Z,20
2018-05-31T03:19:34.819Z,20
2018-05-31T03:20:24.861Z,20
2018-05-31T03:21:15.218Z,20
2018-05-31T03:22:07.946Z,20
2018-05-31T03:22:55.003Z,20
2018-05-31T03:23:44.786Z,20
2018-05-31T03:24:35.465Z,20
2018-05-31T03:25:26.464Z,20
2018-05-31T03:26:15.551Z,20
2018-05-31T03:27:05.331Z,20
2018-05-31T03:27:55.397Z,20
2018-05-31T03:28:45.455Z,19.9
2018-05-31T03:29:36.086Z,19.9
2018-05-31T03:30:25.621Z,20
2018-05-31T03:31:17.512Z,19.9
2018-05-31T03:32:06.315Z,19.9
2018-05-31T03:32:56.054Z,19.9
2018-05-31T03:33:45.493Z,19.9
2018-05-31T03:34:38.687Z,19.9
2018-05-31T03:35:26.339Z,19.9
2018-05-31T03:36:15.412Z,19.9
2018-05-31T03:37:06.676Z,19.9
2018-05-31T03:37:58.905Z,19.9
2018-05-31T03:38:46.497Z,19.9
2018-05-31T03:39:36.006Z,19.9
2018-05-31T03:40:26.889Z,19.9
2018-05-31T03:41:19.817Z,19.9
2018-05-31T03:42:07.103Z,19.9
2018-05-31T03:42:56.265Z,19.9
2018-05-31T03:43:46.273Z,19.9
2018-05-31T03:44:35.476Z,19.9
2018-05-31T03:45:25.652Z,19.9
2018-05-31T03:46:17.412Z,19.9
2018-05-31T03:47:07.460Z,19.9
2018-05-31T03:47:57.338Z,19.9
2018-05-31T03:48:46.682Z,19.9
2018-05-31T03:49:36.495Z,19.9
2018-05-31T03:50:27.387Z,19.9
2018-05-31T03:51:18.087Z,19.9
2018-05-31T03:52:07.002Z,19.9
2018-05-31T03:52:58.110Z,19.9
2018-05-31T03:53:47.624Z,19.9
2018-05-31T03:54:37.437Z,19.9
2018-05-31T03:55:26.910Z,19.9
2018-05-31T03:56:17.587Z,19.9
2018-05-31T03:57:09.179Z,19.9
2018-05-31T03:57:57.989Z,19.9
2018-05-31T03:58:48.638Z,19.9
2018-05-31T03:59:37.222Z,19.9
2018-05-31T04:00:30.958Z,19.9
2018-05-31T04:01:18.800Z,19.9
2018-05-31T04:02:08.873Z,19.9
2018-05-31T04:02:58.617Z,19.9
2018-05-31T04:03:51.495Z,19.9
2018-05-31T04:04:39.131Z,19.9
2018-05-31T04:05:28.825Z,19.9
2018-05-31T04:06:19.153Z,19.9
2018-05-31T04:07:12.457Z,19.9
2018-05-31T04:07:58.732Z,19.9
2018-05-31T04:08:49.082Z,19.9
2018-05-31T04:09:39.475Z,19.9
2018-05-31T04:10:32.248Z,19.9
2018-05-31T04:11:19.278Z,19.9
2018-05-31T04:12:08.723Z,19.9
2018-05-31T04:12:59.756Z,19.9
2018-05-31T04:13:51.075Z,19.9
2018-05-31T04:14:38.664Z,19.9
2018-05-31T04:15:29.314Z,19.8
2018-05-31T04:16:19.380Z,19.9
2018-05-31T04:17:09.127Z,19.9
2018-05-31T04:17:58.897Z,19.9
2018-05-31T04:18:49.784Z,19.9
2018-05-31T04:19:40.276Z,19.8
2018-05-31T04:20:29.473Z,19.9
2018-05-31T04:21:19.992Z,19.9
2018-05-31T04:22:09.771Z,19.8
2018-05-31T04:23:01.535Z,19.8
2018-05-31T04:23:49.660Z,19.8
2018-05-31T04:24:40.573Z,19.8
2018-05-31T04:25:30.029Z,19.8
2018-05-31T04:26:22.635Z,19.8
2018-05-31T04:27:09.928Z,19.8
2018-05-31T04:28:00.268Z,19.8
2018-05-31T04:28:50.027Z,19.9
2018-05-31T04:29:43.145Z,19.8
2018-05-31T04:30:30.759Z,19.8
2018-05-31T04:31:20.789Z,19.8
2018-05-31T04:32:10.591Z,19.9
2018-05-31T04:33:03.650Z,19.8
2018-05-31T04:33:51.941Z,19.8
2018-05-31T04:34:41.199Z,19.9
2018-05-31T04:35:31.412Z,19.8
2018-05-31T04:36:24.094Z,19.8
2018-05-31T04:37:10.694Z,19.8
2018-05-31T04:38:01.299Z,19.8
2018-05-31T04:38:51.655Z,19.8
2018-05-31T04:39:40.505Z,19.9
2018-05-31T04:40:31.200Z,19.8
2018-05-31T04:41:21.544Z,19.8
2018-05-31T04:42:11.907Z,19.8
2018-05-31T04:43:01.959Z,19.8
2018-05-31T04:43:51.700Z,19.8
2018-05-31T04:44:41.503Z,19.8
2018-05-31T04:45:33.221Z,19.8
2018-05-31T04:46:22.218Z,19.8
2018-05-31T04:47:11.768Z,19.8
2018-05-31T04:48:02.043Z,19.8
2018-05-31T04:48:54.044Z,19.8
2018-05-31T04:49:42.197Z,19.9
2018-05-31T04:50:32.015Z,19.8
2018-05-31T04:51:21.430Z,19.8
2018-05-31T04:52:15.089Z,19.8
2018-05-31T04:53:02.552Z,19.9
2018-05-31T04:53:51.014Z,19.8
2018-05-31T04:54:41.978Z,19.8
2018-05-31T04:55:35.489Z,19.8
2018-05-31T04:56:22.148Z,19.8
2018-05-31T04:57:12.484Z,19.8
2018-05-31T04:58:02.877Z,19.8
2018-05-31T04:58:55.478Z,19.8
2018-05-31T04:59:41.578Z,19.8
2018-05-31T05:00:33.379Z,19.8
2018-05-31T05:01:22.781Z,19.8
2018-05-31T05:02:16.198Z,19.8
2018-05-31T05:03:02.837Z,19.8
2018-05-31T05:03:52.778Z,19.8
2018-05-31T05:04:42.269Z,19.8
2018-05-31T05:05:33.489Z,19.8
2018-05-31T05:06:22.865Z,19.9
2018-05-31T05:07:13.523Z,19.9
2018-05-31T05:08:03.612Z,19.9
2018-05-31T05:08:52.883Z,19.8
2018-05-31T05:09:42.975Z,19.9
2018-05-31T05:10:32.993Z,19.9
2018-05-31T05:11:24.216Z,19.9
2018-05-31T05:12:13.133Z,19.9
2018-05-31T05:13:03.525Z,19.8
2018-05-31T05:13:53.138Z,19.9
2018-05-31T05:14:46.041Z,19.9
2018-05-31T05:15:33.893Z,19.9
2018-05-31T05:16:23.997Z,19.9
2018-05-31T05:17:13.737Z,19.9
2018-05-31T05:18:07.597Z,19.9
2018-05-31T05:18:54.703Z,19.9
2018-05-31T05:19:44.240Z,19.9
2018-05-31T05:20:34.555Z,19.9
2018-05-31T05:21:28.047Z,19.9
2018-05-31T05:22:14.390Z,19.9
2018-05-31T05:23:04.154Z,19.9
2018-05-31T05:23:54.504Z,19.9
2018-05-31T05:24:45.953Z,19.9
2018-05-31T05:25:34.158Z,19.9
2018-05-31T05:26:24.148Z,19.9
2018-05-31T05:27:15.364Z,19.9
2018-05-31T05:28:06.157Z,19.9
2018-05-31T05:28:54.917Z,19.9
2018-05-31T05:29:45.579Z,19.9
2018-05-31T05:30:35.061Z,19.9
2018-05-31T05:31:25.115Z,19.9
2018-05-31T05:32:14.835Z,19.9
2018-05-31T05:33:05.217Z,19.9
2018-05-31T05:33:55.525Z,19.9
2018-05-31T05:34:45.597Z,19.9
2018-05-31T05:35:34.182Z,19.9
2018-05-31T05:36:25.759Z,19.9
2018-05-31T05:37:17.151Z,19.9
2018-05-31T05:38:06.131Z,19.9
2018-05-31T05:38:55.909Z,19.9
2018-05-31T05:39:46.296Z,19.9
2018-05-31T05:40:39.567Z,19.9
2018-05-31T05:41:26.141Z,19.9
2018-05-31T05:42:15.375Z,19.9
2018-05-31T05:43:06.319Z,19.9
2018-05-31T05:43:59.411Z,19.9
2018-05-31T05:44:46.743Z,19.9
2018-05-31T05:45:36.228Z,19.9
2018-05-31T05:46:25.903Z,19.9
2018-05-31T05:47:19.695Z,19.9
2018-05-31T05:48:06.346Z,19.9
2018-05-31T05:48:56.092Z,19.9
2018-05-31T05:49:46.741Z,19.9
2018-05-31T05:50:36.248Z,19.9
2018-05-31T05:51:26.298Z,19.9
2018-05-31T05:52:16.654Z,19.9
2018-05-31T05:53:06.783Z,19.9
2018-05-31T05:53:56.579Z,19.9
2018-05-31T05:54:46.861Z,19.9
2018-05-31T05:55:36.706Z,19.9
2018-05-31T05:56:29.079Z,19.9
2018-05-31T05:57:17.043Z,19.9
2018-05-31T05:58:07.692Z,19.9
2018-05-31T05:58:57.745Z,19.9
2018-05-31T05:59:49.632Z,19.9
2018-05-31T06:00:37.443Z,19.9
2018-05-31T06:01:27.613Z,19.9
2018-05-31T06:02:17.680Z,19.9
2018-05-31T06:03:10.724Z,19.9
2018-05-31T06:03:58.105Z,19.9
2018-05-31T06:04:48.200Z,19.9
2018-05-31T06:05:37.998Z,19.9
2018-05-31T06:06:31.190Z,19.9
2018-05-31T06:07:17.795Z,19.9
2018-05-31T06:08:08.115Z,19.9
2018-05-31T06:08:57.780Z,20
2018-05-31T06:09:50.130Z,19.9
2018-05-31T06:10:38.682Z,19.9
2018-05-31T06:11:28.732Z,20
2018-05-31T06:12:17.909Z,19.9
2018-05-31T06:13:08.298Z,19.9
2018-05-31T06:13:58.629Z,19.9
2018-05-31T06:14:48.695Z,19.9
2018-05-31T06:15:40.335Z,19.9
2018-05-31T06:16:28.809Z,19.9
2018-05-31T06:17:17.699Z,20
2018-05-31T06:18:08.940Z,19.9
2018-05-31T06:19:01.747Z,19.9
2018-05-31T06:19:49.687Z,20
2018-05-31T06:20:38.228Z,19.9
2018-05-31T06:21:28.322Z,20
2018-05-31T06:22:20.890Z,20
2018-05-31T06:23:09.674Z,20
2018-05-31T06:23:58.496Z,20
2018-05-31T06:24:49.402Z,20
2018-05-31T06:25:42.317Z,20
2018-05-31T06:26:32.579Z,20
2018-05-31T06:27:19.055Z,20
2018-05-31T06:28:09.375Z,20
2018-05-31T06:29:02.346Z,20
2018-05-31T06:29:48.708Z,20
2018-05-31T06:30:39.603Z,20
2018-05-31T06:31:29.422Z,20
2018-05-31T06:32:20.573Z,20
2018-05-31T06:33:09.833Z,20
2018-05-31T06:34:00.403Z,20
2018-05-31T06:34:50.053Z,20
2018-05-31T06:35:39.842Z,20
2018-05-31T06:36:30.237Z,20
2018-05-31T06:37:21.689Z,20
2018-05-31T06:38:10.632Z,20
2018-05-31T06:39:00.668Z,20
2018-05-31T06:39:50.190Z,20
2018-05-31T06:40:40.797Z,20
2018-05-31T06:41:30.608Z,20
2018-05-31T06:42:20.686Z,20.1
2018-05-31T06:43:10.841Z,20
2018-05-31T06:44:00.271Z,20.1
2018-05-31T06:44:50.582Z,20
2018-05-31T06:45:40.847Z,20.1
2018-05-31T06:46:30.406Z,20
2018-05-31T06:47:20.543Z,20
2018-05-31T06:48:10.865Z,20
2018-05-31T06:49:01.178Z,20
2018-05-31T06:49:50.994Z,20.1
2018-05-31T06:50:40.799Z,20.1
2018-05-31T06:51:30.464Z,20
2018-05-31T06:52:20.807Z,20.1
2018-05-31T06:53:11.475Z,20.1
2018-05-31T06:54:01.598Z,20.1
2018-05-31T06:54:51.300Z,20.1
2018-05-31T06:55:41.121Z,20.1
2018-05-31T06:56:31.455Z,20.1
2018-05-31T06:57:21.477Z,20.1
2018-05-31T06:58:11.043Z,20.1
2018-05-31T06:59:01.883Z,20.1
2018-05-31T06:59:51.657Z,20.1
2018-05-31T07:00:42.054Z,20.1
2018-05-31T07:01:31.480Z,20.1
2018-05-31T07:02:21.308Z,20.1
2018-05-31T07:03:12.194Z,20.1
2018-05-31T07:04:02.249Z,20.1
2018-05-31T07:04:51.797Z,20.1
2018-05-31T07:05:42.512Z,20.1
2018-05-31T07:06:31.951Z,20.1
2018-05-31T07:07:22.535Z,20.1
2018-05-31T07:08:12.311Z,20.1
2018-05-31T07:09:02.131Z,20.1
2018-05-31T07:09:52.697Z,20.1
2018-05-31T07:10:42.243Z,20.1
2018-05-31T07:11:32.368Z,20.1
2018-05-31T07:12:23.227Z,20.1
2018-05-31T07:13:12.784Z,20.1
2018-05-31T07:14:02.474Z,20.1
2018-05-31T07:14:53.360Z,20.1
2018-05-31T07:15:43.213Z,20.1
2018-05-31T07:16:32.966Z,20.1
2018-05-31T07:17:23.306Z,20.1
2018-05-31T07:18:13.355Z,20.1
2018-05-31T07:19:03.678Z,20.1
2018-05-31T07:19:53.468Z,20.1
2018-05-31T07:20:43.334Z,20.1
2018-05-31T07:21:32.883Z,20.1
2018-05-31T07:22:23.455Z,20.1
2018-05-31T07:23:13.465Z,20.1
2018-05-31T07:24:02.526Z,20.1
2018-05-31T07:24:53.642Z,20.1
2018-05-31T07:25:43.434Z,20.1
2018-05-31T07:26:33.727Z,20.1
2018-05-31T07:27:24.686Z,20.1
2018-05-31T07:28:13.560Z,20.1
2018-05-31T07:29:03.969Z,20.1
2018-05-31T07:29:53.692Z,20.1
2018-05-31T07:30:44.207Z,20.1
2018-05-31T07:31:33.411Z,20.1
2018-05-31T07:32:23.624Z,20.1
2018-05-31T07:33:13.467Z,20.1
2018-05-31T07:34:04.916Z,20.1
2018-05-31T07:34:54.666Z,20.1
2018-05-31T07:35:44.484Z,20.1
2018-05-31T07:36:34.820Z,20.1
2018-05-31T07:37:24.239Z,20.1
2018-05-31T07:38:14.354Z,20.1
2018-05-31T07:39:04.437Z,20.1
2018-05-31T07:39:54.499Z,20.1
2018-05-31T07:40:44.303Z,20.1
2018-05-31T07:41:34.603Z,20.1
2018-05-31T07:42:25.292Z,20.1
2018-05-31T07:43:14.701Z,20.1
2018-05-31T07:44:05.398Z,20.1
2018-05-31T07:44:55.688Z,20.1
2018-05-31T07:45:45.463Z,20.1
2018-05-31T07:46:34.152Z,20.1
2018-05-31T07:47:25.568Z,20.1
2018-05-31T07:48:15.738Z,20.1
2018-05-31T07:49:06.089Z,20.1
2018-05-31T07:49:55.510Z,20.1
2018-05-31T07:50:45.953Z,20.1
2018-05-31T07:51:36.274Z,20.1
2018-05-31T07:52:25.834Z,20.1
2018-05-31T07:53:16.486Z,20.1
2018-05-31T07:54:05.926Z,20.1
2018-05-31T07:54:56.136Z,20.2
2018-05-31T07:55:45.393Z,20.2
2018-05-31T07:56:36.306Z,20.2
2018-05-31T07:57:26.642Z,20.1
2018-05-31T07:58:17.548Z,20.2
2018-05-31T07:59:06.204Z,20.2
2018-05-31T07:59:56.255Z,20.2
2018-05-31T08:00:45.015Z,20.1
2018-05-31T08:01:35.557Z,20.2
2018-05-31T08:02:25.958Z,20.2
2018-05-31T08:03:16.613Z,20.2
2018-05-31T08:04:06.624Z,20.2
2018-05-31T08:04:56.993Z,20.1
2018-05-31T08:05:46.597Z,20.2
2018-05-31T08:06:36.579Z,20.2
2018-05-31T08:07:27.187Z,20.2
2018-05-31T08:08:17.571Z,20.2
2018-05-31T08:09:06.758Z,20.2
2018-05-31T08:09:57.149Z,20.2
2018-05-31T08:10:47.045Z,20.2
2018-05-31T08:11:37.765Z,20.2
2018-05-31T08:12:25.815Z,20.2
2018-05-31T08:13:17.118Z,20.2
2018-05-31T08:14:07.433Z,20.2
2018-05-31T08:14:57.467Z,20.2
2018-05-31T08:15:47.333Z,20.2
2018-05-31T08:16:37.302Z,20.2
2018-05-31T08:17:27.439Z,20.2
2018-05-31T08:18:18.027Z,20.2
2018-05-31T08:19:07.813Z,20.2
2018-05-31T08:19:57.955Z,20.2
2018-05-31T08:20:48.116Z,20.2
2018-05-31T08:21:38.615Z,20.2
2018-05-31T08:22:28.004Z,20.2
2018-05-31T08:23:17.245Z,20.2
2018-05-31T08:24:07.870Z,20.2
2018-05-31T08:24:58.042Z,20.2
2018-05-31T08:25:48.006Z,20.2
2018-05-31T08:26:38.135Z,20.2
2018-05-31T08:27:27.856Z,20.2
2018-05-31T08:28:17.967Z,20.2
2018-05-31T08:29:08.880Z,20.2
2018-05-31T08:29:59.246Z,20.2
2018-05-31T08:30:48.687Z,20.2
2018-05-31T08:31:41.333Z,20.2
2018-05-31T08:32:28.241Z,20.2
2018-05-31T08:33:17.573Z,20.2
2018-05-31T08:34:09.514Z,20.2
2018-05-31T08:34:59.662Z,20.2
2018-05-31T08:35:49.635Z,20.2
2018-05-31T08:36:39.753Z,20.2
2018-05-31T08:37:29.444Z,20.3
2018-05-31T08:38:18.703Z,20.3
2018-05-31T08:39:09.028Z,20.2
2018-05-31T08:39:59.379Z,20.2
2018-05-31T08:40:49.158Z,20.2
2018-05-31T08:41:38.958Z,20.2
2018-05-31T08:42:29.912Z,20.3
2018-05-31T08:43:19.957Z,20.3
2018-05-31T08:44:11.065Z,20.3
2018-05-31T08:44:59.488Z,20.2
2018-05-31T08:45:49.867Z,20.3
2018-05-31T08:46:40.165Z,20.3
2018-05-31T08:47:29.120Z,20.2
2018-05-31T08:48:20.384Z,20.3
2018-05-31T08:49:09.088Z,20.2
2018-05-31T08:50:00.716Z,20.3
2018-05-31T08:50:50.498Z,20.3
2018-05-31T08:51:40.026Z,20.3
2018-05-31T08:52:30.047Z,20.3
2018-05-31T08:53:20.182Z,20.3
2018-05-31T08:54:10.811Z,20.3
2018-05-31T08:55:00.789Z,20.3
2018-05-31T08:55:49.339Z,20.3
2018-05-31T08:56:40.951Z,20.3
2018-05-31T08:57:30.110Z,20.3
2018-05-31T08:58:20.560Z,20.3
2018-05-31T08:59:11.432Z,20.3
2018-05-31T09:00:00.683Z,20.3
2018-05-31T09:00:51.081Z,20.3
2018-05-31T09:01:41.045Z,20.3
2018-05-31T09:02:31.103Z,20.3
2018-05-31T09:03:20.967Z,20.3
2018-05-31T09:04:11.265Z,20.3
2018-05-31T09:05:00.630Z,20.3
2018-05-31T09:05:51.429Z,20.3
2018-05-31T09:06:40.583Z,20.3
2018-05-31T09:07:32.051Z,20.3
2018-05-31T09:08:21.868Z,20.3
2018-05-31T09:09:11.394Z,20.3
2018-05-31T09:10:01.764Z,20.3
2018-05-31T09:10:52.347Z,20.3
2018-05-31T09:11:41.850Z,20.3
2018-05-31T09:12:32.234Z,20.3
2018-05-31T09:13:21.671Z,20.3
2018-05-31T09:14:12.346Z,20.3
2018-05-31T09:15:02.704Z,20.3
2018-05-31T09:15:51.582Z,20.3
2018-05-31T09:16:42.501Z,20.3
2018-05-31T09:17:32.373Z,20.3
2018-05-31T09:18:22.363Z,20.3
2018-05-31T09:19:12.723Z,20.3
2018-05-31T09:20:01.925Z,20.3
2018-05-31T09:20:51.674Z,20.3
2018-05-31T09:21:43.161Z,20.3
2018-05-31T09:22:32.950Z,20.3
2018-05-31T09:23:22.453Z,20.3
2018-05-31T09:24:13.036Z,20.3
2018-05-31T09:25:03.179Z,20.3
2018-05-31T09:25:52.021Z,20.3
2018-05-31T09:26:42.991Z,20.3
2018-05-31T09:27:32.773Z,20.3
2018-05-31T09:28:23.436Z,20.3
2018-05-31T09:29:13.502Z,20.3
2018-05-31T09:30:03.264Z,20.3
2018-05-31T09:30:53.535Z,20.3
2018-05-31T09:31:43.937Z,20.3
2018-05-31T09:32:32.827Z,20.3
2018-05-31T09:33:23.814Z,20.3
2018-05-31T09:34:13.276Z,20.3
2018-05-31T09:35:03.857Z,20.3
2018-05-31T09:35:53.774Z,20.3
2018-05-31T09:36:43.813Z,20.3
2018-05-31T09:37:34.087Z,20.3
2018-05-31T09:38:24.131Z,20.3
2018-05-31T09:39:14.244Z,20.3
2018-05-31T09:40:04.569Z,20.3
2018-05-31T09:40:54.705Z,20.3
2018-05-31T09:41:43.541Z,20.3
2018-05-31T09:42:33.335Z,20.3
2018-05-31T09:43:23.698Z,20.3
2018-05-31T09:44:14.898Z,20.3
2018-05-31T09:45:04.735Z,20.3
2018-05-31T09:45:55.012Z,20.3
2018-05-31T09:46:45.187Z,20.3
2018-05-31T09:47:34.593Z,20.3
2018-05-31T09:48:24.983Z,20.3
2018-05-31T09:49:13.889Z,20.3
2018-05-31T09:50:05.107Z,20.3
2018-05-31T09:50:55.180Z,20.3
2018-05-31T09:51:44.946Z,20.3
2018-05-31T09:52:34.789Z,20.3
2018-05-31T09:53:25.092Z,20.3
2018-05-31T09:54:14.565Z,20.3
2018-05-31T09:55:05.568Z,20.3
2018-05-31T09:55:55.818Z,20.3
2018-05-31T09:56:45.331Z,20.3
2018-05-31T09:57:35.459Z,20.3
2018-05-31T09:58:25.922Z,20.3
2018-05-31T09:59:14.977Z,20.3
2018-05-31T10:00:05.362Z,20.3
2018-05-31T10:00:55.093Z,20.3
2018-05-31T10:01:45.761Z,20.3
2018-05-31T10:02:35.205Z,20.3
2018-05-31T10:03:25.812Z,20.3
2018-05-31T10:04:15.889Z,20.3
2018-05-31T10:05:05.692Z,20.3
2018-05-31T10:05:56.374Z,20.3
2018-05-31T10:06:46.637Z,20.3
2018-05-31T10:07:36.206Z,20.3
2018-05-31T10:08:26.502Z,20.3
2018-05-31T10:09:16.325Z,20.3
2018-05-31T10:10:06.356Z,20.3
2018-05-31T10:10:56.972Z,20.3
2018-05-31T10:11:47.068Z,20.3
2018-05-31T10:12:36.857Z,20.3
2018-05-31T10:13:27.173Z,20.3
2018-05-31T10:14:16.406Z,20.3
2018-05-31T10:15:06.606Z,20.3
2018-05-31T10:15:56.522Z,20.4
2018-05-31T10:16:46.904Z,20.3
2018-05-31T10:17:37.250Z,20.3
2018-05-31T10:18:26.921Z,20.3
2018-05-31T10:19:16.735Z,20.3
2018-05-31T10:20:07.409Z,20.3
2018-05-31T10:20:57.187Z,20.3
2018-05-31T10:21:47.225Z,20.3
2018-05-31T10:22:37.167Z,20.3
2018-05-31T10:23:28.053Z,20.3
2018-05-31T10:24:17.440Z,20.3
2018-05-31T10:25:07.497Z,20.3
2018-05-31T10:25:57.614Z,20.3
2018-05-31T10:26:48.177Z,20.3
2018-05-31T10:27:37.718Z,20.3
2018-05-31T10:28:28.042Z,20.3
2018-05-31T10:29:17.300Z,20.4
2018-05-31T10:30:08.440Z,20.3
2018-05-31T10:30:58.522Z,20.3
2018-05-31T10:31:47.758Z,20.3
2018-05-31T10:32:38.191Z,20.4
2018-05-31T10:33:28.420Z,20.4
2018-05-31T10:34:17.903Z,20.4
2018-05-31T10:35:08.269Z,20.4
2018-05-31T10:35:58.416Z,20.4
2018-05-31T10:36:48.455Z,20.4
2018-05-31T10:37:38.273Z,20.4
2018-05-31T10:38:27.876Z,20.4
2018-05-31T10:39:18.864Z,20.4
2018-05-31T10:40:08.460Z,20.4
2018-05-31T10:40:59.291Z,20.4
2018-05-31T10:41:48.549Z,20.4
2018-05-31T10:42:38.061Z,20.4
2018-05-31T10:43:29.269Z,20.4
2018-05-31T10:44:19.014Z,20.4
2018-05-31T10:45:09.689Z,20.5
2018-05-31T10:45:58.846Z,20.5
2018-05-31T10:46:49.581Z,20.6
2018-05-31T10:47:39.893Z,20.6
2018-05-31T10:48:29.346Z,20.6
2018-05-31T10:49:18.457Z,20.6
2018-05-31T10:50:10.066Z,20.6
2018-05-31T10:50:59.488Z,20.7
2018-05-31T10:51:49.811Z,20.7
2018-05-31T10:52:39.373Z,20.7
2018-05-31T10:53:29.397Z,20.7
2018-05-31T10:54:19.774Z,20.7
2018-05-31T10:55:10.133Z,20.8
2018-05-31T10:56:00.195Z,20.8
2018-05-31T10:56:49.964Z,20.8
2018-05-31T10:57:40.519Z,20.8
2018-05-31T10:58:29.788Z,20.8
2018-05-31T10:59:20.882Z,20.8
2018-05-31T11:00:09.917Z,20.8
2018-05-31T11:00:59.961Z,20.8
2018-05-31T11:01:50.265Z,20.9
2018-05-31T11:02:40.628Z,20.8
2018-05-31T11:03:30.150Z,20.9
2018-05-31T11:04:21.021Z,20.8
2018-05-31T11:05:10.297Z,20.9
2018-05-31T11:06:00.695Z,20.9
2018-05-31T11:06:50.419Z,20.9
2018-05-31T11:07:41.080Z,20.9
2018-05-31T11:08:31.110Z,20.9
2018-05-31T11:09:21.185Z,20.9